Time;durP1;ratioP1;P1;durP2;ratioP2;P2;SDS_P1;SDS_P2;PMS_P1;PMS_P2;Temp;Humidity;BMP_temperature;BMP_pressure;BME280_temperature;BME280_humidity;BME280_pressure;Samples;Min_cycle;Max_cycle;Signal;HPM_P1;HPM_P2
2023/01/17 00:02:02;;;;;;;7.03;1.30;;;;;;;1.53;100.00;98291.28;5033828;28;20021;-89
2023/01/17 00:10:06;;;;;;;2.35;1.30;;;;;;;1.36;100.00;98316.06;5035645;28;20095;-88
2023/01/17 00:12:32;;;;;;;4.17;0.77;;;;;;;1.28;100.00;98309.41;5036089;28;20021;-88
2023/01/17 00:14:59;;;;;;;3.97;0.90;;;;;;;1.16;100.00;98299.09;5034375;28;20704;-88
2023/01/17 00:17:26;;;;;;;6.10;0.98;;;;;;;1.27;100.00;98328.13;5035100;28;20469;-88
2023/01/17 01:35:01;;;;;;;3.50;1.00;;;;;;;0.47;100.00;98442.31;5031991;28;20121;-88
2023/01/17 01:37:27;;;;;;;2.33;1.20;;;;;;;0.47;100.00;98431.78;5030694;28;20081;-88
2023/01/17 01:39:54;;;;;;;1.60;0.93;;;;;;;0.49;100.00;98450.75;5030648;28;20399;-87
2023/01/17 01:42:21;;;;;;;2.13;1.10;;;;;;;0.50;100.00;98461.03;5029153;28;20116;-88
2023/01/17 01:44:53;;;;;;;3.45;1.30;;;;;;;0.44;100.00;98454.94;4997833;28;20037;-88
2023/01/17 01:47:24;;;;;;;1.40;1.30;;;;;;;0.48;100.00;98475.53;5031917;28;20033;-88
2023/01/17 01:49:51;;;;;;;4.68;1.50;;;;;;;0.45;100.00;98480.25;5017180;28;20381;-88
2023/01/17 01:52:19;;;;;;;1.47;1.37;;;;;;;0.42;100.00;98486.00;5000466;28;20038;-88
2023/01/17 01:55:07;;;;;;;2.17;1.42;;;;;;;0.36;100.00;98481.75;5035018;28;20025;-88
2023/01/17 01:57:38;;;;;;;2.30;1.70;;;;;;;0.36;100.00;98483.56;5040780;28;20033;-88
2023/01/17 02:00:10;;;;;;;1.90;1.80;;;;;;;0.47;100.00;98489.75;5055462;28;20032;-88
2023/01/17 02:02:36;;;;;;;6.78;2.25;;;;;;;0.40;100.00;98490.72;5037916;28;20031;-88
2023/01/17 02:05:02;;;;;;;4.20;2.30;;;;;;;0.42;100.00;98490.50;5054793;28;20025;-88
2023/01/17 02:07:35;;;;;;;4.13;2.40;;;;;;;0.40;100.00;98496.00;5054861;28;20382;-88
2023/01/17 02:10:01;;;;;;;5.38;2.25;;;;;;;0.32;100.00;98490.38;5033751;28;20112;-88
2023/01/17 02:12:27;;;;;;;2.50;2.20;;;;;;;0.25;100.00;98495.84;5034923;28;20092;-87
2023/01/17 02:14:54;;;;;;;3.67;2.20;;;;;;;0.11;100.00;98492.78;5017166;28;20029;-88
2023/01/17 02:17:40;;;;;;;2.28;2.00;;;;;;;0.16;100.00;98508.66;5014059;28;20040;-88
2023/01/17 02:20:30;;;;;;;4.55;2.50;;;;;;;0.19;100.00;98504.72;5032657;28;20147;-88
2023/01/17 02:23:15;;;;;;;4.80;2.40;;;;;;;0.21;100.00;98511.34;5041525;28;20094;-88
2023/01/17 02:25:59;;;;;;;4.93;2.60;;;;;;;0.30;100.00;98522.25;5052676;28;20020;-88
2023/01/17 02:29:05;;;;;;;6.85;3.40;;;;;;;0.23;100.00;98514.53;5014279;28;20034;-88
2023/01/17 02:31:37;;;;;;;5.23;2.20;;;;;;;0.23;100.00;98529.53;5049333;28;20686;-88
2023/01/17 02:34:09;;;;;;;7.20;1.92;;;;;;;0.22;100.00;98535.84;5054014;28;20384;-88
2023/01/17 02:36:41;;;;;;;5.32;2.00;;;;;;;0.17;100.00;98520.78;5043287;28;20005;-88
2023/01/17 02:39:18;;;;;;;4.80;1.40;;;;;;;0.17;100.00;98531.31;5038487;28;20025;-88
2023/01/17 02:41:47;;;;;;;5.05;1.63;;;;;;;0.19;100.00;98529.22;5037258;28;20017;-86
2023/01/17 02:44:16;;;;;;;3.00;0.97;;;;;;;0.16;100.00;98521.81;5054911;28;20018;-87
2023/01/17 02:46:45;;;;;;;1.40;0.80;;;;;;;0.11;100.00;98517.28;5035234;28;20297;-87
2023/01/17 02:49:12;;;;;;;3.38;0.98;;;;;;;0.14;100.00;98502.81;5030507;28;20087;-87
2023/01/17 02:52:04;;;;;;;4.35;0.93;;;;;;;0.20;100.00;98508.94;5033937;28;20037;-86
2023/01/17 02:54:42;;;;;;;3.13;0.60;;;;;;;0.17;100.00;98520.00;5015643;28;20346;-87
2023/01/17 02:57:25;;;;;;;4.07;0.60;;;;;;;0.10;100.00;98528.06;5031690;28;20116;-87
2023/01/17 03:00:29;;;;;;;1.93;0.37;;;;;;;0.04;100.00;98524.56;5030541;28;20022;-87
2023/01/17 03:03:05;;;;;;;5.47;0.40;;;;;;;-0.13;100.00;98511.47;5027474;28;20288;-87
2023/01/17 03:05:51;;;;;;;3.35;0.40;;;;;;;-0.14;100.00;98522.22;5032344;28;20025;-86
2023/01/17 03:08:17;;;;;;;3.97;0.52;;;;;;;-0.37;100.00;98510.91;5034068;28;20029;-86
2023/01/17 03:10:43;;;;;;;3.10;0.30;;;;;;;-0.47;100.00;98522.84;5034369;28;20025;-86
2023/01/17 03:13:09;;;;;;;2.07;0.20;;;;;;;-0.66;100.00;98521.53;5050415;28;20006;-85
2023/01/17 03:15:35;;;;;;;6.13;0.63;;;;;;;-0.84;100.00;98510.22;5046214;28;20029;-86
2023/01/17 03:18:10;;;;;;;3.17;0.30;;;;;;;-0.69;100.00;98540.41;5032108;28;20037;-86
2023/01/17 03:20:36;;;;;;;4.67;0.30;;;;;;;-0.76;100.00;98545.84;5053676;28;20429;-87
2023/01/17 03:23:02;;;;;;;2.03;0.23;;;;;;;-0.71;100.00;98558.25;5035806;28;20292;-86
2023/01/17 03:25:27;;;;;;;4.07;0.35;;;;;;;-0.77;100.00;98539.78;5035040;28;20029;-86
2023/01/17 03:27:52;;;;;;;2.37;0.20;;;;;;;-0.59;100.00;98566.88;5015618;28;20029;-87
2023/01/17 03:30:20;;;;;;;3.73;0.50;;;;;;;-0.79;100.00;98548.94;5034227;28;20056;-86
2023/01/17 03:32:45;;;;;;;1.85;0.30;;;;;;;-0.77;100.00;98558.19;5032960;28;20065;-87
2023/01/17 03:35:11;;;;;;;2.47;0.30;;;;;;;-1.00;100.00;98542.56;5014899;28;20111;-87
2023/01/17 03:37:36;;;;;;;2.73;0.40;;;;;;;-0.96;100.00;98559.47;5033148;28;20493;-87
2023/01/17 03:40:02;;;;;;;1.00;0.40;;;;;;;-1.01;100.00;98557.53;5033887;28;20026;-88
2023/01/17 03:42:27;;;;;;;1.50;0.43;;;;;;;-1.09;100.00;98544.78;5033252;28;20025;-87
2023/01/17 03:44:52;;;;;;;7.20;0.67;;;;;;;-1.07;100.00;98561.91;5033332;28;20040;-87
2023/01/17 03:47:18;;;;;;;1.57;0.50;;;;;;;-1.13;100.00;98562.88;5032354;28;20029;-87
2023/01/17 03:49:43;;;;;;;2.53;0.60;;;;;;;-1.11;100.00;98565.25;5032281;28;20049;-87
2023/01/17 03:52:08;;;;;;;4.10;0.87;;;;;;;-1.12;100.00;98555.75;5031182;28;20088;-86
2023/01/17 03:54:34;;;;;;;6.28;0.70;;;;;;;-1.13;100.00;98549.72;5032270;28;20021;-87
2023/01/17 03:56:59;;;;;;;7.03;0.70;;;;;;;-1.05;100.00;98553.78;5031173;28;20049;-87
2023/01/17 03:59:24;;;;;;;5.23;1.10;;;;;;;-0.97;100.00;98566.53;5031445;28;20033;-87
2023/01/17 04:01:51;;;;;;;2.43;0.80;;;;;;;-1.00;100.00;98560.97;5014479;28;20025;-87
2023/01/17 04:04:16;;;;;;;2.05;0.77;;;;;;;-1.07;100.00;98554.00;5032565;28;20017;-87
2023/01/17 04:06:43;;;;;;;6.07;1.00;;;;;;;-1.15;100.00;98538.63;5031535;28;20040;-87
2023/01/17 04:09:09;;;;;;;5.95;1.35;;;;;;;-1.10;100.00;98559.75;5033059;28;20061;-87
2023/01/17 04:11:34;;;;;;;3.97;1.40;;;;;;;-1.13;100.00;98557.59;5039990;28;20024;-87
2023/01/17 04:13:59;;;;;;;7.10;1.40;;;;;;;-1.05;100.00;98568.75;5043897;28;20022;-87
2023/01/17 04:16:28;;;;;;;10.23;1.77;;;;;;;-0.98;100.00;98572.03;5043350;28;20260;-87
2023/01/17 04:18:55;;;;;;;10.23;1.63;;;;;;;-0.88;100.00;98569.56;5037112;28;20036;-87
2023/01/17 04:21:21;;;;;;;4.97;1.83;;;;;;;-1.14;100.00;98513.94;5033063;28;20276;-87
2023/01/17 04:23:46;;;;;;;4.47;1.58;;;;;;;-0.76;100.00;98561.63;5012805;28;20033;-87
2023/01/17 04:26:12;;;;;;;12.27;3.10;;;;;;;-0.75;100.00;98562.44;5014177;28;20038;-88
2023/01/17 04:28:38;;;;;;;7.80;2.00;;;;;;;-0.83;100.00;98558.34;5030859;28;20362;-87
2023/01/17 04:31:03;;;;;;;9.83;2.27;;;;;;;-0.75;100.00;98565.84;5031797;28;20182;-87
2023/01/17 04:33:29;;;;;;;5.00;1.70;;;;;;;-0.82;100.00;98557.31;5029090;28;20033;-86
2023/01/17 04:35:55;;;;;;;8.07;1.88;;;;;;;-0.81;100.00;98567.59;5049098;28;20115;-86
2023/01/17 04:40:55;;;;;;;5.80;1.92;;;;;;;-0.94;100.00;98566.06;5856315;22;20045;-86
2023/01/17 04:43:20;;;;;;;8.13;1.80;;;;;;;-0.98;100.00;98557.06;5028900;28;20033;-86
2023/01/17 04:45:46;;;;;;;7.63;2.10;;;;;;;-1.06;100.00;98557.44;5031640;28;20034;-86
2023/01/17 04:48:11;;;;;;;4.87;1.40;;;;;;;-1.12;100.00;98561.00;5029737;28;20033;-86
2023/01/17 04:50:38;;;;;;;8.77;1.40;;;;;;;-1.26;100.00;98555.25;5031582;28;20428;-86
2023/01/17 04:53:03;;;;;;;5.00;1.33;;;;;;;-1.29;100.00;98558.38;5030645;28;20116;-86
2023/01/17 04:55:28;;;;;;;8.73;1.43;;;;;;;-1.29;100.00;98571.50;5030922;28;20474;-86
2023/01/17 04:57:53;;;;;;;7.23;1.50;;;;;;;-1.43;100.00;98563.09;5030702;28;20492;-86
2023/01/17 05:00:19;;;;;;;5.93;1.63;;;;;;;-1.43;100.00;98563.88;5023598;28;20790;-86
2023/01/17 05:02:44;;;;;;;7.63;1.70;;;;;;;-1.41;100.00;98572.34;5026977;28;20037;-86
2023/01/17 05:05:12;;;;;;;5.00;1.70;;;;;;;-1.51;100.00;98559.03;5028638;28;20037;-86
2023/01/17 05:07:37;;;;;;;4.60;2.30;;;;;;;-1.46;100.00;98574.06;5027536;28;20044;-85
2023/01/17 05:10:03;;;;;;;9.07;2.27;;;;;;;-1.84;100.00;98526.34;5025506;28;20022;-86
2023/01/17 05:12:28;;;;;;;11.67;3.07;;;;;;;-1.85;100.00;98527.38;5031027;28;20322;-86
2023/01/17 05:14:54;;;;;;;10.27;3.17;;;;;;;-1.68;100.00;98557.13;5030152;28;20025;-86
2023/01/17 05:17:19;;;;;;;8.23;2.83;;;;;;;-1.68;100.00;98567.63;5026835;28;20124;-85
2023/01/17 05:19:44;;;;;;;14.47;4.80;;;;;;;-1.56;100.00;98577.31;5029320;28;20110;-86
2023/01/17 05:22:14;;;;;;;11.33;4.43;;;;;;;-1.73;100.00;98559.66;5030644;28;20033;-86
2023/01/17 05:24:43;;;;;;;12.77;5.00;;;;;;;-1.61;100.00;98582.44;5029542;28;20025;-86
2023/01/17 05:27:10;;;;;;;17.05;6.03;;;;;;;-1.60;100.00;98573.53;5029604;28;20025;-86
2023/01/17 05:29:36;;;;;;;16.17;5.75;;;;;;;-1.74;100.00;98558.06;5030408;28;20068;-86
2023/01/17 05:32:02;;;;;;;14.70;6.43;;;;;;;-1.69;100.00;98567.84;5030491;28;20029;-86
2023/01/17 05:34:27;;;;;;;18.45;6.13;;;;;;;-1.72;100.00;98563.88;5028485;28;20037;-86
2023/01/17 05:36:52;;;;;;;23.07;6.20;;;;;;;-1.70;100.00;98569.69;5030960;28;20026;-88
2023/01/17 05:39:18;;;;;;;16.50;6.60;;;;;;;-1.60;100.00;98578.78;5037025;28;20026;-85
2023/01/17 05:41:43;;;;;;;19.67;6.90;;;;;;;-1.68;100.00;98566.81;5031326;28;20045;-86
2023/01/17 05:44:10;;;;;;;18.70;6.80;;;;;;;-1.63;100.00;98569.56;5031356;28;20034;-86
2023/01/17 05:46:39;;;;;;;17.38;6.65;;;;;;;-1.65;100.00;98574.25;5038892;28;20057;-84
2023/01/17 05:49:04;;;;;;;18.20;6.00;;;;;;;-1.70;100.00;98577.56;5041930;28;20021;-85
2023/01/17 05:51:36;;;;;;;18.87;7.03;;;;;;;-1.76;100.00;98572.44;5029657;28;20061;-86
2023/01/17 05:54:05;;;;;;;18.27;6.65;;;;;;;-1.69;100.00;98605.44;5048518;28;20031;-86
2023/01/17 05:56:30;;;;;;;18.27;6.95;;;;;;;-1.74;100.00;98588.78;5065990;28;20021;-86
2023/01/17 05:58:57;;;;;;;19.13;6.23;;;;;;;-1.75;100.00;98587.97;5041454;28;20035;-86
2023/01/17 06:01:23;;;;;;;17.75;6.45;;;;;;;-1.70;100.00;98603.84;5031686;28;20503;-87
2023/01/17 06:03:49;;;;;;;20.77;6.47;;;;;;;-1.66;100.00;98606.00;5033602;28;20503;-88
2023/01/17 06:06:14;;;;;;;19.43;6.33;;;;;;;-1.89;100.00;98573.50;5012266;28;20037;-87
2023/01/17 06:08:39;;;;;;;17.17;5.97;;;;;;;-1.69;100.00;98610.69;5030188;28;20032;-88
2023/01/17 06:11:05;;;;;;;17.07;6.07;;;;;;;-1.74;100.00;98602.69;5032563;28;20037;-88
2023/01/17 06:13:31;;;;;;;21.52;7.88;;;;;;;-1.72;100.00;98608.50;5032031;28;20029;-89
2023/01/17 06:16:01;;;;;;;17.00;7.00;;;;;;;-1.77;100.00;98594.50;5032387;28;20030;-88
2023/01/17 06:18:27;;;;;;;20.80;7.03;;;;;;;-1.78;100.00;98603.41;5029777;28;20069;-89
2023/01/17 06:20:53;;;;;;;21.42;8.43;;;;;;;-1.74;100.00;98612.41;5031902;28;20021;-88
2023/01/17 06:23:19;;;;;;;20.73;8.23;;;;;;;-1.73;100.00;98617.41;5030522;28;20104;-90
2023/01/17 06:25:45;;;;;;;26.70;9.00;;;;;;;-1.74;100.00;98612.41;5029374;28;20112;-88
2023/01/17 06:28:14;;;;;;;21.83;8.52;;;;;;;-1.77;100.00;98616.28;5031516;28;20052;-88
2023/01/17 06:30:39;;;;;;;23.00;8.38;;;;;;;-1.79;100.00;98615.72;5033068;28;20022;-88
2023/01/17 06:33:05;;;;;;;20.90;9.10;;;;;;;-1.97;100.00;98598.28;5031319;28;20104;-88
2023/01/17 06:35:30;;;;;;;23.23;9.53;;;;;;;-1.90;100.00;98606.81;5036040;28;20037;-87
2023/01/17 06:37:58;;;;;;;23.10;10.13;;;;;;;-1.99;100.00;98601.13;5036278;28;20033;-88
2023/01/17 06:40:25;;;;;;;27.58;11.27;;;;;;;-1.88;100.00;98611.84;5034168;28;20135;-88
2023/01/17 06:42:51;;;;;;;27.98;10.18;;;;;;;-1.90;100.00;98616.53;5035691;28;20030;-89
2023/01/17 06:45:18;;;;;;;24.17;9.23;;;;;;;-1.91;100.00;98617.56;5034243;28;20018;-85
2023/01/17 06:47:43;;;;;;;24.25;8.48;;;;;;;-1.95;100.00;98617.22;5033297;28;20045;-86
2023/01/17 06:50:13;;;;;;;28.10;9.83;;;;;;;-1.91;100.00;98620.19;5034624;28;20501;-91
2023/01/17 06:52:40;;;;;;;24.13;10.20;;;;;;;-1.92;100.00;98626.47;5030313;28;20499;-87
2023/01/17 06:55:07;;;;;;;33.42;13.07;;;;;;;-1.89;100.00;98623.38;5034229;28;20041;-88
2023/01/17 06:57:33;;;;;;;26.15;11.02;;;;;;;-2.12;100.00;98588.25;5033977;28;20445;-88
2023/01/17 06:59:58;;;;;;;27.23;10.30;;;;;;;-1.95;100.00;98619.84;5033898;28;20049;-89
2023/01/17 07:02:23;;;;;;;25.80;10.27;;;;;;;-2.10;100.00;98606.41;5032231;28;20120;-88
2023/01/17 07:04:49;;;;;;;22.90;9.60;;;;;;;-2.03;100.00;98626.25;5031813;28;20064;-88
2023/01/17 07:07:21;;;;;;;26.52;9.25;;;;;;;-2.13;100.00;98610.25;5031164;28;20037;-88
2023/01/17 07:09:46;;;;;;;33.83;10.60;;;;;;;-2.28;100.00;98601.03;5030920;28;20045;-88
2023/01/17 07:12:13;;;;;;;25.97;9.97;;;;;;;-2.08;100.00;98620.06;5048432;28;20806;-88
2023/01/17 07:14:38;;;;;;;28.00;9.70;;;;;;;-2.32;100.00;98597.25;5029632;28;20049;-88
2023/01/17 07:17:04;;;;;;;25.43;10.27;;;;;;;-2.11;100.00;98628.41;5015181;28;20400;-88
2023/01/17 07:19:29;;;;;;;24.27;9.63;;;;;;;-2.20;100.00;98620.88;5037105;28;20022;-88
2023/01/17 07:21:54;;;;;;;21.40;9.47;;;;;;;-2.17;100.00;98627.47;5029839;28;20061;-88
2023/01/17 07:24:20;;;;;;;22.97;9.97;;;;;;;-2.11;100.00;98637.09;5034983;28;20261;-88
2023/01/17 07:26:49;;;;;;;24.93;9.30;;;;;;;-2.13;100.00;98628.63;5034321;28;20029;-88
2023/01/17 07:29:15;;;;;;;30.98;10.10;;;;;;;-2.18;100.00;98628.50;5031903;28;20036;-87
2023/01/17 07:31:40;;;;;;;24.13;9.90;;;;;;;-2.17;100.00;98637.97;5032170;28;20029;-88
2023/01/17 07:34:07;;;;;;;24.60;11.65;;;;;;;-2.30;100.00;98621.44;5026990;28;20476;-93
2023/01/17 07:36:33;;;;;;;26.88;10.73;;;;;;;-2.21;100.00;98635.03;5025197;28;20038;-89
2023/01/17 07:38:58;;;;;;;27.43;9.90;;;;;;;-2.20;100.00;98636.63;5011607;28;20024;-90
2023/01/17 07:41:31;;;;;;;20.57;10.07;;;;;;;-2.43;100.00;98608.56;5019588;28;20577;-92
2023/01/17 07:43:58;;;;;;;34.67;10.95;;;;;;;-2.37;100.00;98623.38;5009966;28;20042;-90
2023/01/17 07:46:23;;;;;;;19.60;9.10;;;;;;;-2.21;100.00;98652.59;5031424;28;20036;-89
2023/01/17 07:48:48;;;;;;;24.67;9.80;;;;;;;-2.21;100.00;98644.72;5030994;28;20025;-89
2023/01/17 07:51:14;;;;;;;23.73;10.23;;;;;;;-2.42;100.00;98612.78;5034615;28;20436;-91
2023/01/17 07:53:39;;;;;;;30.73;10.97;;;;;;;-2.21;100.00;98647.34;5034340;28;20303;-88
2023/01/17 07:56:06;;;;;;;26.43;10.90;;;;;;;-2.21;100.00;98653.38;5032884;28;20026;-89
2023/01/17 07:58:33;;;;;;;24.83;10.73;;;;;;;-2.21;100.00;98642.09;5035804;28;20056;-87
2023/01/17 08:10:20;;;;;;;37.13;11.97;;;;;;;-2.14;100.00;98640.16;5010511;28;20320;-90
2023/01/17 08:12:47;;;;;;;31.33;11.13;;;;;;;-2.11;100.00;98652.81;5016768;28;20057;-90
2023/01/17 08:15:28;;;;;;;;;;;;;;;;;;;;;
2023/01/17 08:17:54;;;;;;;25.33;10.80;;;;;;;-2.10;100.00;98648.41;5013393;28;20280;-93
2023/01/17 08:20:22;;;;;;;38.20;13.43;;;;;;;-1.99;100.00;98653.63;5028354;28;20022;-92
2023/01/17 08:22:56;;;;;;;30.03;11.40;;;;;;;-2.17;100.00;98612.56;5022693;28;20037;-90
2023/01/17 08:25:23;;;;;;;32.37;11.60;;;;;;;-1.93;100.00;98649.31;5025457;28;20285;-92
2023/01/17 08:27:49;;;;;;;37.15;12.27;;;;;;;-1.90;100.00;98653.28;5037369;28;20014;-93
2023/01/17 08:30:15;;;;;;;38.05;13.32;;;;;;;-1.89;100.00;98657.50;5037177;28;20014;-92
2023/01/17 08:32:41;;;;;;;67.33;23.60;;;;;;;-2.20;100.00;98604.34;5028637;28;20082;-90
2023/01/17 08:35:07;;;;;;;39.13;15.95;;;;;;;-2.10;100.00;98612.44;5036137;28;20021;-88
2023/01/17 08:37:33;;;;;;;32.53;11.98;;;;;;;-1.79;100.00;98668.22;5030440;28;20044;-89
2023/01/17 08:39:58;;;;;;;35.53;13.73;;;;;;;-1.80;100.00;98671.09;5019383;28;20029;-88
2023/01/17 08:42:24;;;;;;;32.58;12.23;;;;;;;-1.97;100.00;98642.91;5018256;28;20033;-90
2023/01/17 08:44:49;;;;;;;31.47;11.83;;;;;;;-1.81;100.00;98672.13;5026950;28;20026;-89
2023/01/17 08:47:14;;;;;;;36.57;12.87;;;;;;;-1.86;100.00;98659.69;5025581;28;20041;-88
2023/01/17 08:49:40;;;;;;;40.43;13.20;;;;;;;-2.06;100.00;98631.94;5015357;28;20056;-89
2023/01/17 08:52:05;;;;;;;42.83;13.90;;;;;;;-1.78;100.00;98666.41;5026177;28;20055;-90
2023/01/17 08:54:31;;;;;;;30.77;12.45;;;;;;;-2.21;100.00;98613.25;5010390;28;20060;-89
2023/01/17 08:56:56;;;;;;;39.30;13.67;;;;;;;-2.17;100.00;98607.31;5018571;28;20018;-88
2023/01/17 08:59:22;;;;;;;38.40;13.87;;;;;;;-1.89;100.00;98639.13;5014566;28;20025;-89
2023/01/17 09:01:47;;;;;;;42.75;13.40;;;;;;;-2.00;100.00;98628.41;5021085;28;20040;-91
2023/01/17 09:04:21;;;;;;;38.00;13.90;;;;;;;-1.86;100.00;98643.94;5020149;28;20038;-91
2023/01/17 09:06:47;;;;;;;34.35;12.90;;;;;;;-1.98;100.00;98631.59;5018669;28;20539;-89
2023/01/17 09:09:15;;;;;;;40.07;13.00;;;;;;;-1.92;100.00;98640.41;5018774;28;20564;-94
2023/01/17 09:11:44;;;;;;;33.28;12.70;;;;;;;-1.80;100.00;98661.38;5025970;28;20025;-95
2023/01/17 09:14:14;;;;;;;38.22;13.45;;;;;;;-1.84;100.00;98649.75;5043151;28;20029;-93
2023/01/17 09:16:40;;;;;;;33.25;12.02;;;;;;;-1.99;100.00;98637.88;5016046;28;20022;-89
2023/01/17 09:19:08;;;;;;;39.30;13.97;;;;;;;-1.97;100.00;98632.41;5011805;28;20026;-91
2023/01/17 09:21:36;;;;;;;44.65;13.18;;;;;;;-1.88;100.00;98651.22;5016583;28;20108;-89
2023/01/17 09:24:02;;;;;;;37.78;13.38;;;;;;;-1.73;100.00;98664.69;4998422;28;20127;-89
2023/01/17 09:26:29;;;;;;;34.57;11.83;;;;;;;-1.53;100.00;98685.31;5020726;28;20022;-91
2023/01/17 09:28:55;;;;;;;37.05;12.55;;;;;;;-1.52;100.00;98683.50;5013534;28;20041;-92
2023/01/17 09:31:23;;;;;;;36.30;12.80;;;;;;;-1.45;100.00;98692.06;5021657;28;20485;-91
2023/01/17 09:33:51;;;;;;;34.47;13.10;;;;;;;-1.40;100.00;98696.63;4997116;28;20030;-91
2023/01/17 09:36:17;;;;;;;37.25;12.68;;;;;;;-1.38;100.00;98700.63;5018044;28;20152;-93
2023/01/17 09:38:42;;;;;;;42.53;12.87;;;;;;;-1.43;100.00;98687.38;5000411;28;20038;-92
2023/01/17 09:41:26;;;;;;;34.90;12.48;;;;;;;-1.37;100.00;98689.09;5014885;28;20033;-93
2023/01/17 09:44:07;;;;;;;36.17;11.73;;;;;;;-1.32;100.00;98692.84;5019512;28;20068;-93
2023/01/17 09:46:42;;;;;;;26.47;10.53;;;;;;;-1.34;100.00;98684.41;5016011;28;20505;-93
2023/01/17 09:49:15;;;;;;;39.58;12.63;;;;;;;-1.26;100.00;98679.56;5000468;28;20022;-92
2023/01/17 09:51:41;;;;;;;39.22;12.77;;;;;;;-1.20;100.00;98692.84;5017018;28;20041;-89
2023/01/17 09:54:25;;;;;;;41.53;12.27;;;;;;;-1.18;100.00;98699.44;4996315;28;20104;-88
2023/01/17 09:57:16;;;;;;;39.65;11.70;;;;;;;-1.10;100.00;98700.91;5022782;28;20033;-89
2023/01/17 09:59:53;;;;;;;37.97;11.63;;;;;;;-1.02;100.00;98705.81;5000326;28;20057;-90
2023/01/17 10:02:59;;;;;;;32.77;10.67;;;;;;;-0.98;100.00;98717.44;5018643;28;20285;-91
2023/01/17 10:06:02;;;;;;;34.30;12.13;;;;;;;-0.94;100.00;98723.81;5016899;28;20022;-92
2023/01/17 10:08:54;;;;;;;32.72;10.57;;;;;;;-0.87;100.00;98713.16;5007311;28;20038;-89
2023/01/17 10:12:00;;;;;;;36.63;10.52;;;;;;;-0.83;100.00;98703.00;5021664;28;20030;-91
2023/01/17 10:14:35;;;;;;;30.73;10.90;;;;;;;-0.73;100.00;98710.28;4937765;29;20039;-91
2023/01/17 10:17:37;;;;;;;34.70;12.10;;;;;;;-0.64;100.00;98722.00;4958129;28;20047;-90
2023/01/17 10:20:24;;;;;;;39.67;11.30;;;;;;;-0.56;100.00;98715.56;4998901;28;20064;-90
2023/01/17 10:23:06;;;;;;;35.43;11.40;;;;;;;-0.48;100.00;98712.56;5000896;28;20296;-90
2023/01/17 10:25:48;;;;;;;36.42;12.13;;;;;;;-0.48;100.00;98705.47;5036225;28;20057;-91
2023/01/17 10:28:40;;;;;;;36.70;11.50;;;;;;;-0.31;100.00;98715.22;5016712;28;20040;-92
2023/01/17 10:31:21;;;;;;;43.03;12.27;;;;;;;-0.31;100.00;98702.03;5013734;28;20018;-91
2023/01/17 10:33:57;;;;;;;32.13;12.88;;;;;;;-0.14;100.00;98717.88;5015139;28;20052;-90
2023/01/17 10:36:25;;;;;;;42.17;12.30;;;;;;;-0.25;100.00;98693.22;5013904;28;20540;-94
2023/01/17 10:38:59;;;;;;;34.57;11.53;;;;;;;0.02;100.00;98716.25;5014872;28;20784;-92
2023/01/17 10:41:29;;;;;;;33.33;11.63;;;;;;;0.12;100.00;98723.50;4996074;28;20117;-92
2023/01/17 10:44:15;;;;;;;36.72;11.90;;;;;;;0.13;100.00;98714.56;5014016;28;20033;-90
2023/01/17 10:46:51;;;;;;;32.47;10.52;;;;;;;0.07;100.00;98712.91;5006930;28;20053;-89
2023/01/17 10:49:21;;;;;;;27.15;9.80;;;;;;;0.06;100.00;98709.47;5013958;28;20036;-91
2023/01/17 10:52:11;;;;;;;26.17;10.50;;;;;;;0.22;100.00;98723.69;4982020;28;20120;-93
2023/01/17 10:55:03;;;;;;;31.43;11.13;;;;;;;0.32;100.00;98738.84;5010511;28;20290;-90
2023/01/17 10:57:37;;;;;;;31.17;11.15;;;;;;;0.39;100.00;98726.28;5009157;28;20033;-91
2023/01/17 11:00:26;;;;;;;35.05;11.55;;;;;;;0.48;100.00;98726.66;5012300;28;20017;-90
2023/01/17 11:02:51;;;;;;;26.85;11.18;;;;;;;0.66;100.00;98712.41;5010647;28;20034;-91
2023/01/17 11:05:28;;;;;;;42.77;12.43;;;;;;;0.88;100.00;98719.53;4986299;28;20034;-91
2023/01/17 11:08:02;;;;;;;32.03;12.20;;;;;;;1.02;100.00;98707.56;5024038;28;20440;-88
2023/01/17 11:10:45;;;;;;;31.42;12.52;;;;;;;1.19;100.00;98714.63;5029971;28;20026;-90
2023/01/17 11:13:26;;;;;;;35.95;12.38;;;;;;;1.07;100.00;98691.00;5034371;28;20018;-93
2023/01/17 11:15:59;;;;;;;24.13;10.53;;;;;;;1.24;100.00;98704.13;5017866;28;20044;-92
2023/01/17 11:18:28;;;;;;;28.77;10.50;;;;;;;1.02;100.00;98681.19;5005336;28;20026;-93
2023/01/17 11:21:17;;;;;;;28.10;10.73;;;;;;;1.28;100.00;98714.97;5015059;28;20022;-95
2023/01/17 11:23:51;;;;;;;36.13;14.02;;;;;;;1.19;100.00;98693.50;5015419;28;20564;-91
2023/01/17 11:26:30;;;;;;;29.08;11.35;;;;;;;1.15;100.00;98668.66;4997157;28;20037;-95
2023/01/17 11:29:22;;;;;;;17.87;8.73;;;;;;;1.44;100.00;98702.72;4977503;28;20053;-91
2023/01/17 11:31:47;;;;;;;16.63;7.60;;;;;;;1.54;100.00;98705.47;5011305;28;20281;-92
2023/01/17 11:43:31;;;;;;;13.15;6.35;;;;;;;1.53;100.00;98682.75;5042399;22;20084;-94
2023/01/17 11:49:52;;;;;;;18.33;6.20;;;;;;;1.43;100.00;98664.97;6056302;22;20041;-93
2023/01/17 11:52:24;;;;;;;13.75;5.63;;;;;;;1.40;100.00;98660.19;4879607;29;20052;-92
2023/01/17 11:54:53;;;;;;;10.83;4.50;;;;;;;1.43;100.00;98687.94;4953076;28;20015;-88
2023/01/17 11:57:33;;;;;;;8.17;4.17;;;;;;;1.19;100.00;98669.75;5010902;28;20332;-90
2023/01/17 12:00:23;;;;;;;11.75;4.25;;;;;;;1.20;100.00;98684.53;5045267;28;20021;-87
2023/01/17 12:02:57;;;;;;;10.60;4.47;;;;;;;1.14;100.00;98686.34;5042350;28;20164;-92
2023/01/17 12:05:41;;;;;;;7.53;3.97;;;;;;;1.11;100.00;98688.66;5023380;28;20048;-92
2023/01/17 12:08:24;;;;;;;11.73;3.80;;;;;;;0.96;100.00;98655.03;5031498;28;20707;-91
2023/01/17 12:10:56;;;;;;;10.17;4.70;;;;;;;1.11;100.00;98686.84;5035470;28;20396;-91
2023/01/17 12:14:02;;;;;;;8.60;4.20;;;;;;;1.16;100.00;98689.53;5034460;28;20276;-88
2023/01/17 12:16:30;;;;;;;9.05;4.57;;;;;;;1.21;100.00;98683.50;5033445;28;20095;-91
2023/01/17 12:19:00;;;;;;;11.52;3.97;;;;;;;1.15;100.00;98687.13;5013668;28;20063;-92
2023/01/17 12:21:45;;;;;;;8.55;3.90;;;;;;;1.23;100.00;98691.16;5027476;28;20044;-91
2023/01/17 12:24:23;;;;;;;8.27;3.67;;;;;;;1.19;100.00;98685.59;5038689;28;20117;-91
2023/01/17 12:27:05;;;;;;;9.87;4.43;;;;;;;1.11;100.00;98672.81;5030981;28;20072;-90
2023/01/17 12:29:57;;;;;;;10.63;3.50;;;;;;;1.16;100.00;98672.88;5031797;28;20295;-94
2023/01/17 12:32:54;;;;;;;9.85;3.90;;;;;;;1.19;100.00;98681.09;5033072;28;20095;-91
2023/01/17 12:35:40;;;;;;;5.18;2.60;;;;;;;1.03;100.00;98663.50;5035876;28;20029;-90
2023/01/17 12:38:09;;;;;;;7.32;3.00;;;;;;;1.07;100.00;98680.44;5024808;28;20083;-92
2023/01/17 12:41:00;;;;;;;8.75;3.05;;;;;;;1.06;100.00;98681.50;5028653;28;20029;-92
2023/01/17 12:43:32;;;;;;;6.20;2.75;;;;;;;1.04;100.00;98688.84;5010574;28;20041;-92
2023/01/17 12:46:03;;;;;;;5.37;2.77;;;;;;;0.93;100.00;98669.47;5032732;28;20473;-94
2023/01/17 12:48:36;;;;;;;7.10;2.90;;;;;;;0.92;100.00;98667.88;4998414;28;20292;-92
2023/01/17 12:51:10;;;;;;;8.13;3.03;;;;;;;0.56;100.00;98609.47;5015480;28;20444;-89
2023/01/17 12:54:01;;;;;;;9.45;3.13;;;;;;;0.99;100.00;98676.41;5032285;28;20030;-88
2023/01/17 12:56:39;;;;;;;10.00;3.78;;;;;;;0.96;100.00;98676.91;5030375;28;20152;-88
2023/01/17 12:59:18;;;;;;;7.85;2.88;;;;;;;0.94;100.00;98676.34;5030747;28;20036;-88
2023/01/17 13:01:56;;;;;;;6.32;2.92;;;;;;;0.91;100.00;98671.59;5029862;28;20034;-89
2023/01/17 13:04:31;;;;;;;6.63;2.07;;;;;;;0.93;100.00;98679.25;5014621;28;20087;-90
2023/01/17 13:07:23;;;;;;;4.47;2.60;;;;;;;0.90;100.00;98659.44;5033307;28;20300;-92
2023/01/17 13:09:54;;;;;;;3.92;2.40;;;;;;;0.80;100.00;98644.31;5034381;28;20037;-91
2023/01/17 13:12:21;;;;;;;4.55;1.88;;;;;;;1.00;100.00;98667.47;5039517;28;20018;-90
2023/01/17 13:14:47;;;;;;;5.55;2.10;;;;;;;1.09;100.00;98672.31;5040125;28;20029;-91
2023/01/17 13:17:34;;;;;;;6.20;2.20;;;;;;;0.90;100.00;98656.81;5047698;28;20017;-90
2023/01/17 13:20:57;;;;;;;6.40;1.70;;;;;;;0.91;100.00;98653.13;5042862;28;20397;-89
2023/01/17 13:23:32;;;;;;;6.80;2.10;;;;;;;1.00;100.00;98664.03;4974461;28;20324;-93
2023/01/17 13:25:58;;;;;;;7.18;2.15;;;;;;;0.98;100.00;98669.53;5045007;28;20029;-93
2023/01/17 13:28:27;;;;;;;6.75;1.83;;;;;;;0.99;100.00;98673.78;5034587;28;20048;-93